Portada
METAR-TAF:

METAR-TAF

Aeroports :

Armilla

Granada, Espanya

latitud: 37-08N, longitud: 003-38-08W, altitud: 700 m

Observació

L'informe es va fer fa 1 hora i 25 minuts, a les 17:00 UTC
Vent 14 kt del Oest/Nord-Oest, variant entre Oest i Nord/Nord-Oest
Temperatura 12°C
Humitat 62%
Pressió 1004 hPa
Visibilitat 10 km o més
Cel ennuvolat a una alçada de 5500 ft

METAR: LEGA 231700Z 30014KT 270V330 9999 BKN055 12/05 Q1004

Hora: 20:25 (18:25 UTC)

Pronòstic

L'informe es va fer fa 2 hores i 15 minuts, a les 16:10 UTC
Pronòstic vàlid del 23 a les 16 UTC al 23 a les 24 UTC
Vent 7 kt del Oest/Sud-Oest
Visibilitat 10 km o més
Núvols disperses a una alçada de 3500 ft
Probabilitat 30% :
Temporalment
l' 23 a les 16 UTC al 23 a les 19 UTC
Vent 15 kt del Oest amb ràfegues de 25 kt
Visibilitat: 4000 m
Núvols disperses a una alçada de 3000 ft, Cumulus congestus.
xàfecs de pluja

TAF: LEGA 231610Z 2316/2324 24007KT 9999 SCT035 PROB30 TEMPO 2316/2319 27015G25KT 4000 SHRA SCT030TCU

Observacions i pronòstics meteorològics de més de 4000 aeroports (METAR i TAF).

Les estacions disponibles són els punts grocs i vermells al mapa.

Posi el ratolí al punt desitjat per veure el nom de l'estació.

Feu clic per veure les observacions i els pronòstics meteorològics.

Per canviar el mapa: feu clic els botons verds amb una creu de color negre per apropar; al botó verd amb un guió per allunyar la imatge; o en les fletxes verdes per a mapes adjacents.


METAR-TAF: